Time;durP1;ratioP1;P1;durP2;ratioP2;P2;SDS_P1;SDS_P2;PMS_P1;PMS_P2;Temp;Humidity;BMP_temperature;BMP_pressure;BME280_temperature;BME280_humidity;BME280_pressure;Samples;Min_cycle;Max_cycle;Signal;HPM_P1;HPM_P2
2023/10/09 00:01:13;;;;;;;2.80;1.30;;;;;;;;;;4893654;29;20043;-69
2023/10/09 00:03:44;;;;;;;3.25;1.30;;;;;;;;;;4887379;29;20112;-70
2023/10/09 00:06:13;;;;;;;2.35;1.00;;;;;;;;;;4887629;29;20033;-69
2023/10/09 00:08:39;;;;;;;2.65;1.30;;;;;;;;;;4886415;29;20031;-70
2023/10/09 00:11:15;;;;;;;7.00;1.52;;;;;;;;;;4885288;29;20204;-70
2023/10/09 00:13:49;;;;;;;3.47;1.40;;;;;;;;;;4888542;29;20084;-70
2023/10/09 00:16:23;;;;;;;5.70;1.40;;;;;;;;;;4886932;29;20040;-70
2023/10/09 00:18:49;;;;;;;2.35;1.13;;;;;;;;;;4886904;29;20056;-70
2023/10/09 00:21:21;;;;;;;3.78;1.42;;;;;;;;;;4883749;29;20452;-70
2023/10/09 00:23:54;;;;;;;2.83;1.30;;;;;;;;;;4886024;29;20036;-70
2023/10/09 00:26:19;;;;;;;2.92;1.13;;;;;;;;;;4886753;29;20021;-70
2023/10/09 00:28:46;;;;;;;4.17;1.20;;;;;;;;;;4884108;29;20041;-70
2023/10/09 00:31:15;;;;;;;2.65;1.15;;;;;;;;;;4887410;29;20299;-70
2023/10/09 00:33:41;;;;;;;3.03;1.00;;;;;;;;;;4887474;29;20558;-70
2023/10/09 00:36:10;;;;;;;4.13;1.27;;;;;;;;;;4885476;29;20048;-70
2023/10/09 00:38:36;;;;;;;3.22;1.13;;;;;;;;;;4889774;29;20029;-70
2023/10/09 00:41:10;;;;;;;3.90;1.40;;;;;;;;;;4888110;29;20069;-71
2023/10/09 00:43:37;;;;;;;3.00;1.25;;;;;;;;;;4888336;29;20088;-70
2023/10/09 00:48:47;;;;;;;4.30;1.35;;;;;;;;;;4891299;29;20061;-70
2023/10/09 00:51:17;;;;;;;3.13;1.23;;;;;;;;;;4890978;29;20550;-70
2023/10/09 00:53:44;;;;;;;5.10;1.67;;;;;;;;;;4891142;29;20495;-69
2023/10/09 00:59:20;;;;;;;2.35;1.05;;;;;;;;;;4879078;29;20503;-69
2023/10/09 01:01:56;;;;;;;3.13;1.37;;;;;;;;;;4891258;29;20402;-70
2023/10/09 01:04:22;;;;;;;5.05;1.40;;;;;;;;;;4885666;29;20036;-70
2023/10/09 01:06:52;;;;;;;2.47;1.25;;;;;;;;;;4882712;29;20032;-69
2023/10/09 01:09:18;;;;;;;4.78;1.63;;;;;;;;;;4888015;29;20036;-69
2023/10/09 01:14:24;;;;;;;2.78;1.45;;;;;;;;;;4888820;29;20032;-70
2023/10/09 01:16:53;;;;;;;4.85;1.88;;;;;;;;;;4889080;29;20075;-69
2023/10/09 01:19:25;;;;;;;2.60;1.23;;;;;;;;;;4886100;29;20043;-70
2023/10/09 01:21:51;;;;;;;3.35;1.13;;;;;;;;;;4883985;29;20127;-69
2023/10/09 01:24:16;;;;;;;3.53;1.27;;;;;;;;;;4891088;29;20091;-69
2023/10/09 01:26:49;;;;;;;3.07;1.00;;;;;;;;;;4903804;29;20033;-69
2023/10/09 01:29:17;;;;;;;4.03;1.10;;;;;;;;;;4889055;29;20279;-69
2023/10/09 01:31:56;;;;;;;3.30;1.30;;;;;;;;;;4890985;29;20128;-69
2023/10/09 01:34:24;;;;;;;3.37;1.27;;;;;;;;;;4902835;29;20507;-69
2023/10/09 01:36:53;;;;;;;3.42;1.30;;;;;;;;;;4889212;29;20314;-69
2023/10/09 01:39:27;;;;;;;2.55;1.10;;;;;;;;;;4886609;29;20444;-69
2023/10/09 01:41:58;;;;;;;10.90;1.40;;;;;;;;;;4884726;29;20029;-69
2023/10/09 01:44:25;;;;;;;4.10;1.40;;;;;;;;;;4885766;29;20049;-69
2023/10/09 01:46:52;;;;;;;2.03;1.10;;;;;;;;;;4885027;29;20032;-69
2023/10/09 01:49:21;;;;;;;2.33;1.00;;;;;;;;;;4887834;29;20033;-69
2023/10/09 01:51:48;;;;;;;3.43;1.20;;;;;;;;;;4887471;29;20044;-69
2023/10/09 01:54:27;;;;;;;3.42;1.10;;;;;;;;;;4890258;29;20036;-69
2023/10/09 01:56:53;;;;;;;3.80;1.20;;;;;;;;;;4896645;29;20550;-69
2023/10/09 01:59:19;;;;;;;2.78;1.10;;;;;;;;;;4901687;29;20036;-69
2023/10/09 02:01:47;;;;;;;3.90;0.97;;;;;;;;;;4903921;29;20097;-69
2023/10/09 02:04:14;;;;;;;5.03;1.40;;;;;;;;;;4904491;29;20288;-69
2023/10/09 02:06:40;;;;;;;5.32;1.30;;;;;;;;;;4892997;29;20358;-69
2023/10/09 02:09:06;;;;;;;3.42;1.30;;;;;;;;;;4888122;29;20040;-69
2023/10/09 02:11:43;;;;;;;2.78;1.10;;;;;;;;;;4888636;29;20176;-68
2023/10/09 02:14:20;;;;;;;3.13;1.30;;;;;;;;;;4886103;29;20032;-68
2023/10/09 02:19:38;;;;;;;3.47;1.23;;;;;;;;;;4887087;29;20100;-70
2023/10/09 02:22:13;;;;;;;3.33;0.98;;;;;;;;;;4887592;29;20407;-70
2023/10/09 02:24:50;;;;;;;3.47;1.23;;;;;;;;;;4888721;29;20107;-71
2023/10/09 02:30:15;;;;;;;4.88;1.30;;;;;;;;;;4888053;29;20107;-70
2023/10/09 02:32:42;;;;;;;3.10;1.02;;;;;;;;;;4886303;29;20040;-69
2023/10/09 02:35:19;;;;;;;2.95;1.02;;;;;;;;;;4887935;29;20052;-70
2023/10/09 02:37:46;;;;;;;8.07;1.38;;;;;;;;;;4887383;29;20391;-70
2023/10/09 02:40:15;;;;;;;3.50;1.30;;;;;;;;;;4887814;29;20033;-70
2023/10/09 02:42:43;;;;;;;3.15;1.25;;;;;;;;;;4886459;29;20489;-70
2023/10/09 02:45:10;;;;;;;4.30;1.50;;;;;;;;;;4888034;29;20047;-69
2023/10/09 02:47:39;;;;;;;2.92;1.40;;;;;;;;;;4891355;29;20029;-70
2023/10/09 02:50:19;;;;;;;3.20;1.40;;;;;;;;;;4889877;29;20024;-70
2023/10/09 02:52:47;;;;;;;3.92;1.25;;;;;;;;;;4888372;29;20037;-70
2023/10/09 02:55:23;;;;;;;4.03;1.23;;;;;;;;;;4884650;29;20149;-70
2023/10/09 02:57:51;;;;;;;4.03;1.35;;;;;;;;;;4888166;29;20027;-69
2023/10/09 03:00:29;;;;;;;3.25;1.10;;;;;;;;;;4888451;29;20025;-69
2023/10/09 03:02:58;;;;;;;2.25;1.23;;;;;;;;;;4884609;29;20029;-69
2023/10/09 03:05:27;;;;;;;2.63;1.33;;;;;;;;;;4885122;29;20027;-70
2023/10/09 03:07:53;;;;;;;3.20;1.40;;;;;;;;;;4883151;29;20111;-69
2023/10/09 03:10:18;;;;;;;4.68;1.48;;;;;;;;;;4883932;29;20115;-69
2023/10/09 03:12:44;;;;;;;4.25;1.33;;;;;;;;;;4900217;29;20048;-69
2023/10/09 03:15:11;;;;;;;2.85;1.40;;;;;;;;;;4886094;29;20036;-69
2023/10/09 03:17:36;;;;;;;5.68;1.13;;;;;;;;;;4885494;29;20475;-69
2023/10/09 03:20:12;;;;;;;3.03;1.20;;;;;;;;;;4887563;29;20041;-69
2023/10/09 03:22:37;;;;;;;4.30;1.45;;;;;;;;;;4886814;29;20037;-69
2023/10/09 03:25:02;;;;;;;2.92;1.40;;;;;;;;;;4886324;29;20044;-70
2023/10/09 03:27:28;;;;;;;4.05;1.58;;;;;;;;;;4886219;29;20021;-70
2023/10/09 03:29:53;;;;;;;4.78;1.60;;;;;;;;;;4887425;29;20039;-70
2023/10/09 03:32:19;;;;;;;6.35;2.05;;;;;;;;;;4886654;29;20105;-70
2023/10/09 03:34:44;;;;;;;3.92;1.45;;;;;;;;;;4883937;29;20060;-69
2023/10/09 03:37:21;;;;;;;4.28;1.83;;;;;;;;;;4886954;29;20384;-70
2023/10/09 03:39:48;;;;;;;2.92;1.55;;;;;;;;;;4883807;29;20037;-70
2023/10/09 03:42:19;;;;;;;4.97;2.08;;;;;;;;;;4883288;29;20053;-69
2023/10/09 03:44:48;;;;;;;4.03;2.05;;;;;;;;;;4881394;29;20037;-70
2023/10/09 03:47:16;;;;;;;8.15;2.42;;;;;;;;;;4885042;29;20025;-70
2023/10/09 03:49:43;;;;;;;10.40;2.50;;;;;;;;;;4884958;29;20642;-70
2023/10/09 03:52:09;;;;;;;11.48;2.55;;;;;;;;;;4886658;29;20684;-69
2023/10/09 03:54:35;;;;;;;6.43;1.77;;;;;;;;;;4884121;29;20036;-70
2023/10/09 03:57:00;;;;;;;8.18;2.42;;;;;;;;;;4887020;29;20088;-70
2023/10/09 03:59:30;;;;;;;6.38;1.95;;;;;;;;;;4887375;29;20064;-70
2023/10/09 04:01:57;;;;;;;7.13;2.22;;;;;;;;;;4889960;29;20021;-70
2023/10/09 04:04:23;;;;;;;7.50;2.08;;;;;;;;;;4889589;29;20024;-69
2023/10/09 04:06:48;;;;;;;7.75;1.95;;;;;;;;;;4883613;29;20039;-70
2023/10/09 04:12:34;;;;;;;12.00;1.90;;;;;;;;;;4891143;29;20073;-71
2023/10/09 04:14:34;;;;;;;;;;;;;;;;;;4890147;29;20036;-69
2023/10/09 04:17:04;;;;;;;7.32;2.00;;;;;;;;;;4895093;29;19922;-69
2023/10/09 04:19:29;;;;;;;;;;;;;;;;;;4890406;29;20089;-69
2023/10/09 04:21:58;;;;;;;7.33;2.23;;;;;;;;;;4888908;29;20282;-70
2023/10/09 04:24:23;;;;;;;3.72;1.88;;;;;;;;;;4886154;29;20628;-70
2023/10/09 04:26:55;;;;;;;10.65;1.95;;;;;;;;;;4897984;29;20068;-70
2023/10/09 04:29:26;;;;;;;15.25;3.05;;;;;;;;;;4885571;29;20031;-70
2023/10/09 04:31:53;;;;;;;10.18;2.35;;;;;;;;;;4899201;29;20064;-70
2023/10/09 04:34:22;;;;;;;13.65;2.60;;;;;;;;;;4885313;29;20028;-69
2023/10/09 04:36:49;;;;;;;13.40;2.27;;;;;;;;;;4884645;29;20048;-69
2023/10/09 04:39:16;;;;;;;10.80;2.30;;;;;;;;;;4888003;29;20295;-70
2023/10/09 04:46:44;;;;;;;27.90;3.00;;;;;;;;;;4885885;29;20104;-70
2023/10/09 04:49:27;;;;;;;20.92;2.90;;;;;;;;;;4901772;29;20122;-70
2023/10/09 04:52:09;;;;;;;14.40;2.72;;;;;;;;;;4888057;29;20036;-70
2023/10/09 04:55:02;;;;;;;14.18;2.92;;;;;;;;;;4901305;29;20036;-71
2023/10/09 04:57:25;;;;;;;12.98;2.60;;;;;;;;;;4885230;29;20042;-70
2023/10/09 04:59:51;;;;;;;12.57;2.75;;;;;;;;;;4885906;29;20523;-70
2023/10/09 05:02:19;;;;;;;14.57;2.60;;;;;;;;;;4888153;29;20096;-70
2023/10/09 05:04:47;;;;;;;10.80;2.60;;;;;;;;;;4887398;29;20036;-70
2023/10/09 05:10:08;;;;;;;5.82;1.98;;;;;;;;;;4884909;29;20546;-69
2023/10/09 05:12:33;;;;;;;13.13;2.85;;;;;;;5.65;nan;101461.84;4887067;29;20111;-70
2023/10/09 05:15:08;;;;;;;4.43;1.88;;;;;;;5.67;nan;101452.03;4900761;29;20108;-70
2023/10/09 05:17:38;;;;;;;8.02;1.90;;;;;;;5.62;nan;101441.28;4888096;29;20084;-71
2023/10/09 05:22:57;;;;;;;6.88;2.08;;;;;;;5.69;nan;101448.28;4887393;29;20071;-69
2023/10/09 05:28:25;;;;;;;4.82;1.90;;;;;;;5.53;nan;101417.78;4889402;29;20383;-70
2023/10/09 05:31:06;;;;;;;4.93;1.92;;;;;;;5.78;nan;101467.38;4891256;29;20033;-69
2023/10/09 05:33:33;;;;;;;8.40;1.85;;;;;;;5.74;nan;101450.41;4894306;29;20450;-69
2023/10/09 05:38:58;;;;;;;8.30;2.03;;;;;;;5.81;nan;101471.47;4893504;29;20052;-68
2023/10/09 05:45:30;;;;;;;4.78;1.85;;;;;;;5.78;nan;101467.38;4886259;29;20155;-69
2023/10/09 06:03:26;;;;;;;10.73;2.50;;;;;;;5.87;nan;101473.41;4846114;29;20048;-74
2023/10/09 06:09:11;;;;;;;9.93;2.30;;;;;;;5.91;nan;101477.31;4846822;29;20057;-73
2023/10/09 06:14:04;;;;;;;6.60;2.17;;;;;;;5.97;nan;101468.84;4849138;29;20120;-74
2023/10/09 06:16:41;;;;;;;7.88;2.40;;;;;;;6.09;nan;101500.69;4860062;29;20033;-75
2023/10/09 06:24:18;;;;;;;15.00;2.85;;;;;;;6.31;nan;101497.31;4854584;29;20097;-75
2023/10/09 06:29:35;;;;;;;6.35;2.80;;;;;;;6.28;nan;101483.78;4862922;29;20030;-75
2023/10/09 06:35:16;;;;;;;6.30;3.35;;;;;;;6.48;nan;101498.06;4868363;29;20077;-75
2023/10/09 06:51:41;;;;;;;7.47;3.20;;;;;;;7.06;nan;101495.13;4890350;29;20439;-73
2023/10/09 06:54:06;;;;;;;9.98;3.45;;;;;;;7.16;nan;101491.28;4889711;29;20101;-75
2023/10/09 06:59:15;;;;;;;6.53;3.00;;;;;;;7.08;nan;101451.25;4890696;29;20075;-74
2023/10/09 07:01:44;;;;;;;5.53;2.95;;;;;;;7.34;nan;101490.97;4903799;29;20028;-75
2023/10/09 07:06:56;;;;;;;7.03;3.00;;;;;;;7.59;nan;101490.75;4895781;29;20045;-75
2023/10/09 07:09:22;;;;;;;8.73;3.35;;;;;;;7.69;nan;101496.56;4898600;29;20032;-74
2023/10/09 07:17:26;;;;;;;8.35;2.92;;;;;;;;;;4893576;29;20044;-77
2023/10/09 07:24:58;;;;;;;9.90;2.75;;;;;;;;;;4885148;29;20044;-74
2023/10/09 07:30:35;;;;;;;5.25;2.67;;;;;;;;;;4888080;29;20060;-74
2023/10/09 07:33:05;;;;;;;4.47;2.28;;;;;;;;;;4886338;29;20036;-74
2023/10/09 07:38:08;;;;;;;6.95;2.30;;;;;;;;;;4887791;29;20040;-74
2023/10/09 07:40:56;;;;;;;7.53;2.60;;;;;;;8.88;nan;101462.34;4887692;29;20035;-75
2023/10/09 07:43:28;;;;;;;11.95;2.08;;;;;;;9.00;nan;101458.19;4890762;29;20087;-74
2023/10/09 07:48:29;;;;;;;12.43;3.65;;;;;;;9.19;nan;101433.09;4886949;29;20059;-73
2023/10/09 07:50:57;;;;;;;8.10;2.53;;;;;;;9.33;nan;101432.19;4887424;29;20036;-73
2023/10/09 07:53:29;;;;;;;9.38;2.42;;;;;;;9.49;nan;101431.13;4883145;29;20029;-73
2023/10/09 07:56:06;;;;;;;4.90;2.10;;;;;;;9.60;nan;101440.31;4883787;29;20037;-74
2023/10/09 07:58:33;;;;;;;10.32;2.70;;;;;;;9.66;nan;101434.25;4884175;29;20041;-71
2023/10/09 08:01:08;;;;;;;10.40;2.63;;;;;;;9.83;nan;101455.00;4885348;29;20036;-72
2023/10/09 08:03:37;;;;;;;10.05;2.50;;;;;;;9.93;nan;101451.00;4887954;29;20135;-73
2023/10/09 08:11:59;;;;;;;5.65;1.90;;;;;;;10.32;nan;101440.84;4881679;29;20103;-72
2023/10/09 08:17:05;;;;;;;4.32;1.83;;;;;;;10.46;nan;101429.34;4888669;29;20040;-72
2023/10/09 08:19:34;;;;;;;10.00;1.83;;;;;;;10.45;nan;101421.69;4884776;29;20021;-72
2023/10/09 08:24:55;;;;;;;3.53;1.50;;;;;;;10.57;nan;101414.81;4904085;29;20139;-72
2023/10/09 08:32:42;;;;;;;6.20;2.20;;;;;;;10.65;nan;101411.97;4885739;29;20041;-72
2023/10/09 08:35:51;;;;;;;4.15;1.83;;;;;;;10.83;nan;101429.84;4884336;29;20028;-71
2023/10/09 08:37:59;;;;;;;8.63;2.45;;;;;;;10.89;nan;101420.31;4884262;29;20085;-70
2023/10/09 08:40:45;;;;;;;6.05;2.70;;;;;;;10.92;nan;101423.38;4891013;29;20036;-72
2023/10/09 08:43:14;;;;;;;6.70;2.58;;;;;;;11.01;nan;101421.34;4893818;29;20131;-71
2023/10/09 08:45:44;;;;;;;7.20;2.63;;;;;;;11.00;nan;101414.47;4890898;29;20036;-71
2023/10/09 08:48:17;;;;;;;7.43;2.55;;;;;;;11.12;nan;101418.09;4886284;29;20021;-72
2023/10/09 08:50:49;;;;;;;7.05;2.70;;;;;;;11.13;nan;101397.81;4887889;29;20162;-72
2023/10/09 08:53:19;;;;;;;11.15;2.80;;;;;;;11.23;nan;101398.25;4886082;29;20111;-72
2023/10/09 08:55:46;;;;;;;7.80;2.30;;;;;;;11.25;nan;101385.63;4886533;29;20680;-72
2023/10/09 08:58:54;;;;;;;9.80;2.90;;;;;;;11.35;nan;101385.22;4889510;29;20040;-71
2023/10/09 09:01:00;;;;;;;6.70;2.40;;;;;;;11.42;nan;101380.75;4887568;29;20128;-70
2023/10/09 09:03:26;;;;;;;7.85;3.28;;;;;;;11.46;nan;101371.41;4889678;29;20111;-71
2023/10/09 09:06:04;;;;;;;10.63;3.28;;;;;;;11.53;nan;101359.00;4889181;29;20392;-71
2023/10/09 09:08:35;;;;;;;9.93;3.30;;;;;;;11.65;nan;101360.00;4890309;29;20020;-71
2023/10/09 09:11:14;;;;;;;6.85;2.70;;;;;;;11.75;nan;101356.09;4887096;29;20104;-71
2023/10/09 09:14:12;;;;;;;7.10;3.03;;;;;;;11.81;nan;101350.81;4890686;29;20033;-71
2023/10/09 09:16:44;;;;;;;14.40;3.10;;;;;;;11.91;nan;101364.38;4887538;29;20051;-71
2023/10/09 09:21:48;;;;;;;6.35;2.97;;;;;;;12.09;nan;101349.69;4891897;29;20120;-71
2023/10/09 09:26:59;;;;;;;7.40;3.17;;;;;;;12.28;nan;101337.38;4913135;29;20038;-70
2023/10/09 09:29:36;;;;;;;8.82;3.17;;;;;;;12.38;nan;101321.06;4915528;29;20223;-70
2023/10/09 09:32:18;;;;;;;6.70;2.35;;;;;;;12.43;nan;101319.41;4910762;29;20037;-71
2023/10/09 09:34:54;;;;;;;7.40;2.08;;;;;;;12.55;nan;101303.69;4912808;29;20013;-70
2023/10/09 09:37:28;;;;;;;5.93;2.22;;;;;;;12.65;nan;101303.19;4913251;29;20036;-68
2023/10/09 09:39:55;;;;;;;7.75;2.55;;;;;;;12.59;nan;101286.34;4895961;29;20035;-69
2023/10/09 09:42:27;;;;;;;4.50;1.90;;;;;;;12.76;nan;101298.00;4888296;29;20806;-70
2023/10/09 09:44:53;;;;;;;7.95;2.40;;;;;;;12.83;nan;101286.56;4893768;29;20550;-70
2023/10/09 09:47:27;;;;;;;6.20;2.08;;;;;;;12.81;nan;101276.22;4892363;29;20051;-71
2023/10/09 09:50:22;;;;;;;4.43;2.20;;;;;;;12.89;nan;101286.50;4889707;29;20056;-70
2023/10/09 09:52:40;;;;;;;5.20;2.05;;;;;;;12.95;nan;101274.22;4887994;29;20697;-70
2023/10/09 09:55:17;;;;;;;4.88;2.20;;;;;;;13.01;nan;101272.56;4888671;29;20039;-71
2023/10/09 09:57:45;;;;;;;6.07;2.40;;;;;;;13.09;nan;101278.34;4884904;29;20179;-72
2023/10/09 10:00:28;;;;;;;9.35;2.03;;;;;;;13.24;nan;101299.19;4887479;29;20037;-72
2023/10/09 10:02:58;;;;;;;5.55;1.80;;;;;;;13.32;nan;101295.44;4890573;29;20036;-71
2023/10/09 10:05:29;;;;;;;4.18;1.50;;;;;;;13.40;nan;101277.44;4887743;29;20384;-70
2023/10/09 10:07:58;;;;;;;4.18;1.63;;;;;;;13.56;nan;101278.66;4895828;29;20035;-71
2023/10/09 10:11:23;;;;;;;3.53;1.90;;;;;;;13.59;nan;101248.31;4903389;29;20036;-71
2023/10/09 10:13:41;;;;;;;4.05;1.70;;;;;;;13.80;nan;101262.91;4898598;29;20119;-70
2023/10/09 10:16:19;;;;;;;6.03;3.80;;;;;;;13.90;nan;101257.06;4889807;29;20032;-73
2023/10/09 10:18:59;;;;;;;6.90;2.70;;;;;;;14.01;nan;101243.03;4889634;29;20040;-73
2023/10/09 10:24:05;;;;;;;7.30;2.17;;;;;;;14.24;nan;101229.03;4888878;29;20024;-73
2023/10/09 10:26:34;;;;;;;9.73;2.13;;;;;;;14.38;nan;101219.81;4886777;29;20025;-73
2023/10/09 10:29:23;;;;;;;4.82;2.13;;;;;;;14.48;nan;101211.28;4888727;29;20690;-73
2023/10/09 10:31:54;;;;;;;4.20;2.15;;;;;;;14.54;nan;101196.34;4887213;29;20025;-72
2023/10/09 10:34:23;;;;;;;4.63;2.20;;;;;;;14.63;nan;101201.06;4887664;29;20117;-72
2023/10/09 10:36:58;;;;;;;6.18;2.55;;;;;;;14.67;nan;101191.59;4888192;29;20135;-75
2023/10/09 10:39:42;;;;;;;11.05;2.22;;;;;;;14.78;nan;101202.44;4885826;29;20040;-75
2023/10/09 10:42:09;;;;;;;4.75;1.90;;;;;;;14.84;nan;101198.84;4886314;29;20068;-73
2023/10/09 10:44:38;;;;;;;5.32;2.10;;;;;;;14.88;nan;101190.19;4889554;29;20041;-73
2023/10/09 10:47:05;;;;;;;6.65;1.77;;;;;;;14.89;nan;101186.50;4888392;29;20028;-73
2023/10/09 10:49:36;;;;;;;3.83;1.80;;;;;;;15.02;nan;101184.63;4889861;29;20455;-73
2023/10/09 10:52:16;;;;;;;5.50;1.58;;;;;;;15.01;nan;101186.50;4887376;29;20024;-74
2023/10/09 10:57:19;;;;;;;7.13;2.03;;;;;;;15.15;nan;101179.03;4888256;29;20036;-73
2023/10/09 10:59:45;;;;;;;3.03;1.42;;;;;;;15.19;nan;101161.63;4889239;29;20039;-73
2023/10/09 11:07:09;;;;;;;4.95;1.90;;;;;;;15.38;nan;101135.69;4889557;29;20083;-73
2023/10/09 11:09:58;;;;;;;5.32;2.00;;;;;;;15.46;nan;101135.28;4901351;29;20116;-71
2023/10/09 11:12:37;;;;;;;6.20;1.58;;;;;;;15.51;nan;101127.44;4884309;29;20029;-72
2023/10/09 11:18:07;;;;;;;5.15;2.00;;;;;;;15.72;nan;101103.91;4886544;29;20021;-72
2023/10/09 11:20:39;;;;;;;5.47;1.80;;;;;;;15.79;nan;101091.25;4890971;29;20084;-72
2023/10/09 11:25:50;;;;;;;6.97;2.75;;;;;;;16.00;nan;101091.56;4887813;29;20032;-71
2023/10/09 11:28:29;;;;;;;6.38;1.77;;;;;;;16.01;nan;101072.72;4902827;29;20088;-71
2023/10/09 11:30:55;;;;;;;7.32;1.73;;;;;;;16.01;nan;101055.97;4881586;29;20685;-71
2023/10/09 11:33:21;;;;;;;6.78;1.83;;;;;;;16.12;nan;101063.06;4885329;29;20231;-72
2023/10/09 11:35:56;;;;;;;4.90;1.88;;;;;;;16.13;nan;101059.34;4888742;29;20032;-73
2023/10/09 11:38:23;;;;;;;5.30;1.98;;;;;;;16.15;nan;101054.59;4890861;29;20024;-73
2023/10/09 11:43:17;;;;;;;8.90;1.95;;;;;;;16.27;nan;101055.25;4887504;29;20060;-74
2023/10/09 11:45:54;;;;;;;5.63;2.00;;;;;;;16.32;nan;101060.66;4887648;29;20033;-74
2023/10/09 11:48:46;;;;;;;4.43;1.70;;;;;;;16.35;nan;101054.03;4897639;29;20399;-73
2023/10/09 11:51:18;;;;;;;4.28;1.60;;;;;;;16.35;nan;101038.91;4887715;29;20089;-73
2023/10/09 11:53:49;;;;;;;7.82;1.70;;;;;;;16.43;nan;101039.53;4884288;29;20072;-74
2023/10/09 11:56:16;;;;;;;2.30;1.55;;;;;;;16.40;nan;101032.03;4887408;29;20088;-73
2023/10/09 11:58:42;;;;;;;4.50;2.08;;;;;;;16.45;nan;101026.75;4887687;29;20496;-74
2023/10/09 12:01:22;;;;;;;5.20;1.70;;;;;;;16.46;nan;101012.44;4882987;29;20036;-73
2023/10/09 12:03:50;;;;;;;;;;;;;;;16.61;nan;101025.88;4881425;29;20037;-74
2023/10/09 12:06:22;;;;;;;10.75;1.92;;;;;;;16.65;nan;101019.03;4888352;29;19919;-75
2023/10/09 12:08:48;;;;;;;7.55;1.90;;;;;;;16.68;nan;101004.41;4886104;29;20025;-76
2023/10/09 12:11:37;;;;;;;7.93;1.98;;;;;;;16.70;nan;100995.13;4881699;29;20036;-73
2023/10/09 12:14:04;;;;;;;4.85;2.40;;;;;;;16.71;nan;100990.63;4888417;29;20029;-73
2023/10/09 12:16:32;;;;;;;3.60;2.03;;;;;;;16.82;nan;101002.19;4886427;29;20032;-73
2023/10/09 12:18:59;;;;;;;5.30;1.75;;;;;;;16.86;nan;101004.09;4901218;29;20052;-73
2023/10/09 12:21:27;;;;;;;10.32;2.20;;;;;;;16.93;nan;101006.56;4889159;29;20139;-73
2023/10/09 12:23:57;;;;;;;7.43;1.97;;;;;;;16.85;nan;100970.56;4885135;29;20467;-73
2023/10/09 12:26:22;;;;;;;6.65;2.53;;;;;;;17.03;nan;100988.03;4889731;29;20275;-73
2023/10/09 12:28:49;;;;;;;6.00;2.60;;;;;;;17.09;nan;100981.69;4897535;29;20032;-73
2023/10/09 12:31:19;;;;;;;5.10;2.25;;;;;;;17.11;nan;100966.25;4917551;29;20092;-72
2023/10/09 12:33:46;;;;;;;5.50;2.28;;;;;;;17.26;nan;100970.91;4902821;29;20044;-72
2023/10/09 12:36:19;;;;;;;6.22;2.58;;;;;;;17.29;nan;100975.72;4902697;29;20028;-74
2023/10/09 12:38:50;;;;;;;9.45;2.25;;;;;;;17.37;nan;100971.78;4895841;29;20092;-73
2023/10/09 12:41:25;;;;;;;5.68;1.92;;;;;;;17.36;nan;100964.88;4890958;29;20503;-73
2023/10/09 12:43:51;;;;;;;5.55;2.25;;;;;;;17.32;nan;100945.13;4885549;29;20079;-73
2023/10/09 12:46:18;;;;;;;4.20;1.90;;;;;;;17.42;nan;100953.19;4893987;29;20035;-73
2023/10/09 12:48:47;;;;;;;6.07;2.03;;;;;;;17.40;nan;100940.09;4890216;29;20069;-72
2023/10/09 12:51:16;;;;;;;8.48;2.30;;;;;;;17.44;nan;100935.09;4892607;29;20088;-72
2023/10/09 12:53:46;;;;;;;4.60;1.90;;;;;;;17.51;nan;100929.53;4890723;29;20029;-72
2023/10/09 12:56:12;;;;;;;4.65;1.80;;;;;;;17.56;nan;100930.38;4882405;29;20044;-72
2023/10/09 12:58:52;;;;;;;5.47;1.90;;;;;;;17.64;nan;100937.84;4887459;29;20474;-72
2023/10/09 13:01:20;;;;;;;4.97;1.75;;;;;;;17.62;nan;100921.34;4890762;29;20398;-71
2023/10/09 13:03:49;;;;;;;9.57;3.50;;;;;;;17.72;nan;100920.59;4900413;29;20053;-72
2023/10/09 13:06:15;;;;;;;6.82;2.25;;;;;;;17.71;nan;100896.88;4891914;29;20124;-72
2023/10/09 13:08:42;;;;;;;5.10;1.70;;;;;;;17.74;nan;100881.19;4887874;29;20131;-73
2023/10/09 13:11:16;;;;;;;9.60;2.00;;;;;;;17.85;nan;100893.50;4884661;29;20043;-74
2023/10/09 13:13:43;;;;;;;7.93;2.00;;;;;;;17.86;nan;100883.63;4889645;29;20041;-72
2023/10/09 13:16:23;;;;;;;5.30;1.88;;;;;;;17.83;nan;100874.28;4888029;29;20088;-72
2023/10/09 13:18:56;;;;;;;7.25;1.92;;;;;;;17.85;nan;100872.19;4889173;29;20024;-75
2023/10/09 13:21:24;;;;;;;5.90;1.75;;;;;;;17.87;nan;100863.13;4888827;29;20032;-72
2023/10/09 13:23:51;;;;;;;8.55;2.22;;;;;;;17.87;nan;100861.28;4889160;29;20028;-73
2023/10/09 13:26:23;;;;;;;7.85;1.90;;;;;;;17.88;nan;100849.53;4889645;29;20051;-73
2023/10/09 13:28:50;;;;;;;11.15;1.65;;;;;;;17.95;nan;100849.28;4902617;29;20033;-72
2023/10/09 13:31:17;;;;;;;12.48;1.77;;;;;;;17.91;nan;100837.56;4887522;29;20039;-72
2023/10/09 13:33:43;;;;;;;3.63;1.65;;;;;;;17.90;nan;100820.78;4900500;29;20032;-71
2023/10/09 13:36:17;;;;;;;8.93;2.55;;;;;;;18.01;nan;100826.94;4887491;29;20115;-73
2023/10/09 13:38:43;;;;;;;5.63;1.48;;;;;;;18.04;nan;100837.84;4887578;29;20040;-73
2023/10/09 13:41:12;;;;;;;8.70;2.08;;;;;;;18.03;nan;100832.81;4889390;29;20028;-71
2023/10/09 13:43:42;;;;;;;4.18;2.38;;;;;;;18.09;nan;100834.41;4888129;29;20460;-73
2023/10/09 13:46:09;;;;;;;4.47;2.55;;;;;;;18.10;nan;100820.03;4888811;29;20403;-73
2023/10/09 13:48:38;;;;;;;6.32;2.50;;;;;;;18.14;nan;100825.63;4884577;29;20061;-73
2023/10/09 13:51:07;;;;;;;4.57;2.40;;;;;;;18.00;nan;100796.81;4898381;29;20032;-72
2023/10/09 13:53:35;;;;;;;6.82;2.30;;;;;;;18.11;nan;100816.28;4890467;29;20064;-72
2023/10/09 13:56:02;;;;;;;8.07;3.58;;;;;;;18.17;nan;100814.41;4887399;29;20391;-74
2023/10/09 13:58:28;;;;;;;7.55;2.53;;;;;;;18.19;nan;100813.09;4887628;29;20017;-75
2023/10/09 14:00:53;;;;;;;4.90;2.50;;;;;;;18.20;nan;100819.25;4887459;29;20029;-74
2023/10/09 14:03:23;;;;;;;10.93;2.20;;;;;;;18.19;nan;100807.75;4883237;29;20052;-72
2023/10/09 14:05:54;;;;;;;10.55;2.38;;;;;;;18.15;nan;100795.22;4889566;29;20087;-73
2023/10/09 14:08:25;;;;;;;8.90;2.65;;;;;;;18.21;nan;100796.84;4887402;29;20502;-72
2023/10/09 14:10:51;;;;;;;5.63;2.25;;;;;;;18.22;nan;100782.44;4901936;29;20020;-74
2023/10/09 14:13:25;;;;;;;5.95;2.50;;;;;;;18.13;nan;100760.06;4889588;29;20517;-71
2023/10/09 14:15:52;;;;;;;3.60;2.28;;;;;;;18.17;nan;100750.44;4886961;29;20064;-72
2023/10/09 14:18:17;;;;;;;5.30;2.22;;;;;;;18.12;nan;100766.44;4884565;29;20032;-71
2023/10/09 14:20:43;;;;;;;7.55;2.58;;;;;;;18.04;nan;100771.22;4888050;29;20033;-71
2023/10/09 14:23:12;;;;;;;9.38;2.80;;;;;;;18.08;nan;100755.53;4886616;29;20031;-71
2023/10/09 14:25:39;;;;;;;;;;;;;;;18.07;nan;100754.69;4889363;29;20056;-71
2023/10/09 14:28:09;;;;;;;6.10;2.00;;;;;;;17.97;nan;100746.72;4886086;29;20388;-71
2023/10/09 14:30:41;;;;;;;5.72;2.20;;;;;;;17.98;nan;100748.31;4887043;29;20075;-70
2023/10/09 14:33:13;;;;;;;3.95;1.80;;;;;;;18.01;nan;100763.78;4889268;29;20031;-71
2023/10/09 14:35:45;;;;;;;7.10;1.95;;;;;;;17.93;nan;100729.66;4886501;29;20058;-71
2023/10/09 14:38:13;;;;;;;9.18;2.10;;;;;;;17.93;nan;100724.31;4888606;29;20031;-71
2023/10/09 14:40:45;;;;;;;5.15;1.70;;;;;;;17.95;nan;100761.38;4885750;29;20102;-71
2023/10/09 14:43:21;;;;;;;4.10;1.98;;;;;;;17.96;nan;100771.78;4885583;29;20047;-70
2023/10/09 14:45:53;;;;;;;6.22;1.80;;;;;;;17.95;nan;100778.16;4887889;29;20040;-68
2023/10/09 14:48:19;;;;;;;8.82;2.88;;;;;;;17.99;nan;100765.91;4884638;29;20029;-69
2023/10/09 14:50:53;;;;;;;30.58;3.17;;;;;;;18.02;nan;100738.72;4887700;29;20048;-68
2023/10/09 14:53:26;;;;;;;14.23;2.75;;;;;;;18.09;nan;100743.00;4901427;29;20031;-70
2023/10/09 14:56:03;;;;;;;7.30;1.83;;;;;;;18.10;nan;100750.72;4899278;29;20061;-74
2023/10/09 14:58:30;;;;;;;4.55;1.60;;;;;;;18.06;nan;100737.13;4888880;29;20495;-73
2023/10/09 15:00:56;;;;;;;7.50;1.88;;;;;;;18.07;nan;100727.25;4899560;29;20037;-74
2023/10/09 15:03:22;;;;;;;5.32;2.17;;;;;;;18.01;nan;100715.03;4884334;29;20123;-74
2023/10/09 15:05:48;;;;;;;14.80;2.42;;;;;;;17.95;nan;100700.88;4889043;29;20036;-77
2023/10/09 15:08:14;;;;;;;8.13;2.30;;;;;;;18.01;nan;100713.16;4888788;29;20036;-76
2023/10/09 15:10:55;;;;;;;9.68;2.85;;;;;;;17.97;nan;100733.38;4886386;29;20428;-76
2023/10/09 15:13:27;;;;;;;7.53;1.80;;;;;;;17.95;nan;100727.53;4885645;29;20036;-75
2023/10/09 15:15:54;;;;;;;5.30;2.33;;;;;;;17.94;nan;100728.59;4888290;29;20624;-78
2023/10/09 15:18:21;;;;;;;11.85;4.85;;;;;;;17.88;nan;100724.31;4884138;29;20033;-76
2023/10/09 15:20:48;;;;;;;9.23;2.30;;;;;;;17.87;nan;100732.59;4886158;29;20035;-76
2023/10/09 15:23:13;;;;;;;7.18;2.50;;;;;;;17.87;nan;100740.59;4898216;29;20028;-75
2023/10/09 15:25:39;;;;;;;7.72;2.10;;;;;;;17.91;nan;100742.47;4883293;29;20048;-76
2023/10/09 15:28:09;;;;;;;13.48;2.13;;;;;;;17.89;nan;100733.94;4910303;29;20041;-76